< < Back
Terminal Aerodrome Forecast


Current Version              Previous Versions:   1  2  3  4  5  6  7  8  9  

Terminal Aerodrome Forecast

375
FTUS42 KTAE 221100
TAFDHN
TAF
KDHN 221120Z 2212/2312 06007KT P6SM SCT050
     FM221500 08010G15KT P6SM SCT050 BKN100
     FM221900 09011KT P6SM BKN050 BKN100
     FM230000 10010KT P6SM VCSH OVC025
     FM230300 10010KT 3SM RA BR OVC007=

Latest METAR

354
SAUS70 KWBC 230558
MTRDHN
METAR KDHN 230553Z AUTO 09009KT 8SM +RA SCT007 OVC013 15/14 A3009 RMK
AO2 SLP186 P0004 60013 T01500144 10156 20150 401940078
56013


USA.gov is the U.S. government's official web portal to all federal, state and local government web resources and services.